sensor_id;sensor_type;location;lat;lon;timestamp;P1;durP1;ratioP1;P2;durP2;ratioP2
6255;SDS011;3161;48.794;9.784;2023-04-03T00:00:57;5.00;;;2.33;;
6255;SDS011;3161;48.794;9.784;2023-04-03T00:03:24;2.30;;;2.10;;
6255;SDS011;3161;48.794;9.784;2023-04-03T00:05:52;3.57;;;2.10;;
6255;SDS011;3161;48.794;9.784;2023-04-03T00:08:20;2.17;;;2.03;;
6255;SDS011;3161;48.794;9.784;2023-04-03T00:10:48;4.23;;;2.00;;
6255;SDS011;3161;48.794;9.784;2023-04-03T00:13:16;4.10;;;2.10;;
6255;SDS011;3161;48.794;9.784;2023-04-03T00:15:43;3.47;;;2.43;;
6255;SDS011;3161;48.794;9.784;2023-04-03T00:18:11;2.13;;;1.90;;
6255;SDS011;3161;48.794;9.784;2023-04-03T00:20:39;1.93;;;1.80;;
6255;SDS011;3161;48.794;9.784;2023-04-03T00:23:06;2.93;;;2.53;;
6255;SDS011;3161;48.794;9.784;2023-04-03T00:25:34;3.10;;;2.10;;
6255;SDS011;3161;48.794;9.784;2023-04-03T00:28:02;3.10;;;2.37;;
6255;SDS011;3161;48.794;9.784;2023-04-03T00:30:30;3.13;;;2.33;;
6255;SDS011;3161;48.794;9.784;2023-04-03T00:32:58;4.03;;;2.37;;
6255;SDS011;3161;48.794;9.784;2023-04-03T00:35:26;2.20;;;2.00;;
6255;SDS011;3161;48.794;9.784;2023-04-03T00:37:54;4.70;;;2.63;;
6255;SDS011;3161;48.794;9.784;2023-04-03T00:40:24;3.67;;;2.60;;
6255;SDS011;3161;48.794;9.784;2023-04-03T00:42:57;2.13;;;2.03;;
6255;SDS011;3161;48.794;9.784;2023-04-03T00:45:33;3.00;;;2.27;;
6255;SDS011;3161;48.794;9.784;2023-04-03T00:48:07;2.60;;;1.90;;
6255;SDS011;3161;48.794;9.784;2023-04-03T00:50:37;2.67;;;1.70;;
6255;SDS011;3161;48.794;9.784;2023-04-03T00:53:07;6.07;;;2.67;;
6255;SDS011;3161;48.794;9.784;2023-04-03T00:55:37;2.27;;;2.07;;
6255;SDS011;3161;48.794;9.784;2023-04-03T00:58:06;2.67;;;2.17;;
6255;SDS011;3161;48.794;9.784;2023-04-03T01:00:35;2.07;;;1.87;;
6255;SDS011;3161;48.794;9.784;2023-04-03T01:03:05;2.90;;;2.00;;
6255;SDS011;3161;48.794;9.784;2023-04-03T01:05:33;2.03;;;1.90;;
6255;SDS011;3161;48.794;9.784;2023-04-03T01:08:01;1.77;;;1.67;;
6255;SDS011;3161;48.794;9.784;2023-04-03T01:10:30;3.13;;;2.30;;
6255;SDS011;3161;48.794;9.784;2023-04-03T01:12:57;3.63;;;2.03;;
6255;SDS011;3161;48.794;9.784;2023-04-03T01:15:27;4.93;;;1.80;;
6255;SDS011;3161;48.794;9.784;2023-04-03T01:17:57;3.30;;;2.17;;
6255;SDS011;3161;48.794;9.784;2023-04-03T01:25:52;4.10;;;2.80;;
6255;SDS011;3161;48.794;9.784;2023-04-03T01:28:22;7.47;;;3.20;;
6255;SDS011;3161;48.794;9.784;2023-04-03T01:31:06;7.27;;;3.33;;
6255;SDS011;3161;48.794;9.784;2023-04-03T01:33:38;12.37;;;5.20;;
6255;SDS011;3161;48.794;9.784;2023-04-03T01:36:05;7.23;;;3.33;;
6255;SDS011;3161;48.794;9.784;2023-04-03T01:38:34;6.47;;;3.33;;
6255;SDS011;3161;48.794;9.784;2023-04-03T01:41:01;12.27;;;5.23;;
6255;SDS011;3161;48.794;9.784;2023-04-03T01:43:29;5.87;;;3.20;;
6255;SDS011;3161;48.794;9.784;2023-04-03T01:45:56;9.27;;;3.97;;
6255;SDS011;3161;48.794;9.784;2023-04-03T01:48:24;8.73;;;2.10;;
6255;SDS011;3161;48.794;9.784;2023-04-03T01:50:51;3.70;;;2.33;;
6255;SDS011;3161;48.794;9.784;2023-04-03T01:53:19;6.70;;;3.13;;
6255;SDS011;3161;48.794;9.784;2023-04-03T01:55:46;5.63;;;3.17;;
6255;SDS011;3161;48.794;9.784;2023-04-03T01:58:15;7.90;;;3.90;;
6255;SDS011;3161;48.794;9.784;2023-04-03T02:00:42;9.27;;;3.73;;
6255;SDS011;3161;48.794;9.784;2023-04-03T02:03:10;7.23;;;3.30;;
6255;SDS011;3161;48.794;9.784;2023-04-03T02:05:37;4.80;;;2.57;;
6255;SDS011;3161;48.794;9.784;2023-04-03T02:08:05;4.83;;;2.90;;
6255;SDS011;3161;48.794;9.784;2023-04-03T02:10:32;3.87;;;2.57;;
6255;SDS011;3161;48.794;9.784;2023-04-03T02:13:00;2.83;;;2.30;;
6255;SDS011;3161;48.794;9.784;2023-04-03T02:15:28;3.03;;;2.10;;
6255;SDS011;3161;48.794;9.784;2023-04-03T02:17:55;16.83;;;5.20;;
6255;SDS011;3161;48.794;9.784;2023-04-03T02:20:23;4.60;;;2.63;;
6255;SDS011;3161;48.794;9.784;2023-04-03T02:22:50;4.07;;;2.70;;
6255;SDS011;3161;48.794;9.784;2023-04-03T02:25:18;6.47;;;3.20;;
6255;SDS011;3161;48.794;9.784;2023-04-03T02:27:46;5.33;;;2.85;;
6255;SDS011;3161;48.794;9.784;2023-04-03T02:30:13;2.53;;;2.03;;
6255;SDS011;3161;48.794;9.784;2023-04-03T02:32:41;2.93;;;1.90;;
6255;SDS011;3161;48.794;9.784;2023-04-03T02:35:09;5.47;;;1.83;;
6255;SDS011;3161;48.794;9.784;2023-04-03T02:37:37;3.57;;;1.80;;
6255;SDS011;3161;48.794;9.784;2023-04-03T02:40:06;2.77;;;1.60;;
6255;SDS011;3161;48.794;9.784;2023-04-03T02:42:34;1.60;;;1.50;;
6255;SDS011;3161;48.794;9.784;2023-04-03T02:45:01;3.73;;;1.57;;
6255;SDS011;3161;48.794;9.784;2023-04-03T02:47:29;1.57;;;1.47;;
6255;SDS011;3161;48.794;9.784;2023-04-03T02:49:57;2.67;;;1.70;;
6255;SDS011;3161;48.794;9.784;2023-04-03T02:52:24;1.90;;;1.70;;
6255;SDS011;3161;48.794;9.784;2023-04-03T02:54:52;2.03;;;1.60;;
6255;SDS011;3161;48.794;9.784;2023-04-03T02:57:19;3.77;;;1.80;;
6255;SDS011;3161;48.794;9.784;2023-04-03T02:59:47;2.67;;;1.57;;
6255;SDS011;3161;48.794;9.784;2023-04-03T03:02:14;1.60;;;1.50;;
6255;SDS011;3161;48.794;9.784;2023-04-03T03:04:42;3.43;;;1.80;;
6255;SDS011;3161;48.794;9.784;2023-04-03T03:07:09;1.40;;;1.30;;
6255;SDS011;3161;48.794;9.784;2023-04-03T03:09:37;2.10;;;1.60;;
6255;SDS011;3161;48.794;9.784;2023-04-03T03:12:04;3.87;;;1.83;;
6255;SDS011;3161;48.794;9.784;2023-04-03T03:14:32;1.90;;;1.60;;
6255;SDS011;3161;48.794;9.784;2023-04-03T03:17:00;1.63;;;1.40;;
6255;SDS011;3161;48.794;9.784;2023-04-03T03:19:27;4.80;;;1.60;;
6255;SDS011;3161;48.794;9.784;2023-04-03T03:21:55;4.30;;;1.50;;
6255;SDS011;3161;48.794;9.784;2023-04-03T03:24:22;2.53;;;1.73;;
6255;SDS011;3161;48.794;9.784;2023-04-03T03:26:50;5.13;;;2.33;;
6255;SDS011;3161;48.794;9.784;2023-04-03T03:29:18;3.17;;;1.67;;
6255;SDS011;3161;48.794;9.784;2023-04-03T03:31:45;2.20;;;1.90;;
6255;SDS011;3161;48.794;9.784;2023-04-03T03:34:13;1.90;;;1.80;;
6255;SDS011;3161;48.794;9.784;2023-04-03T03:36:40;2.23;;;1.83;;
6255;SDS011;3161;48.794;9.784;2023-04-03T03:39:08;1.50;;;1.40;;
6255;SDS011;3161;48.794;9.784;2023-04-03T03:41:36;1.80;;;1.70;;
6255;SDS011;3161;48.794;9.784;2023-04-03T03:44:03;1.70;;;1.40;;
6255;SDS011;3161;48.794;9.784;2023-04-03T03:46:31;5.50;;;1.83;;
6255;SDS011;3161;48.794;9.784;2023-04-03T03:48:59;3.13;;;1.80;;
6255;SDS011;3161;48.794;9.784;2023-04-03T03:51:26;4.80;;;4.07;;
6255;SDS011;3161;48.794;9.784;2023-04-03T03:53:54;1.90;;;1.80;;
6255;SDS011;3161;48.794;9.784;2023-04-03T03:56:21;2.70;;;1.53;;
6255;SDS011;3161;48.794;9.784;2023-04-03T03:58:48;3.47;;;1.83;;
6255;SDS011;3161;48.794;9.784;2023-04-03T04:01:16;1.53;;;1.43;;
6255;SDS011;3161;48.794;9.784;2023-04-03T04:03:44;2.07;;;1.80;;
6255;SDS011;3161;48.794;9.784;2023-04-03T04:06:11;3.23;;;2.10;;
6255;SDS011;3161;48.794;9.784;2023-04-03T04:08:39;4.20;;;1.90;;
6255;SDS011;3161;48.794;9.784;2023-04-03T04:11:06;4.53;;;1.83;;
6255;SDS011;3161;48.794;9.784;2023-04-03T04:13:35;1.77;;;1.50;;
6255;SDS011;3161;48.794;9.784;2023-04-03T04:16:03;1.60;;;1.50;;
6255;SDS011;3161;48.794;9.784;2023-04-03T04:18:31;3.00;;;1.80;;
6255;SDS011;3161;48.794;9.784;2023-04-03T04:20:58;2.23;;;1.80;;
6255;SDS011;3161;48.794;9.784;2023-04-03T04:23:26;3.30;;;2.00;;
6255;SDS011;3161;48.794;9.784;2023-04-03T04:25:54;2.70;;;1.70;;
6255;SDS011;3161;48.794;9.784;2023-04-03T04:28:21;4.23;;;1.97;;
6255;SDS011;3161;48.794;9.784;2023-04-03T04:30:49;2.40;;;1.80;;
6255;SDS011;3161;48.794;9.784;2023-04-03T04:33:16;1.67;;;1.57;;
6255;SDS011;3161;48.794;9.784;2023-04-03T04:35:44;3.23;;;1.90;;
6255;SDS011;3161;48.794;9.784;2023-04-03T04:38:13;2.83;;;1.90;;
6255;SDS011;3161;48.794;9.784;2023-04-03T04:40:40;1.70;;;1.60;;
6255;SDS011;3161;48.794;9.784;2023-04-03T04:43:08;2.07;;;1.80;;
6255;SDS011;3161;48.794;9.784;2023-04-03T04:45:37;4.13;;;1.60;;
6255;SDS011;3161;48.794;9.784;2023-04-03T04:48:05;4.10;;;1.43;;
6255;SDS011;3161;48.794;9.784;2023-04-03T04:50:32;1.97;;;1.80;;
6255;SDS011;3161;48.794;9.784;2023-04-03T04:53:00;1.87;;;1.40;;
6255;SDS011;3161;48.794;9.784;2023-04-03T04:55:27;1.50;;;1.40;;
6255;SDS011;3161;48.794;9.784;2023-04-03T04:57:55;1.70;;;1.57;;
6255;SDS011;3161;48.794;9.784;2023-04-03T05:00:22;2.50;;;1.60;;
6255;SDS011;3161;48.794;9.784;2023-04-03T05:02:50;5.30;;;1.77;;
6255;SDS011;3161;48.794;9.784;2023-04-03T05:05:18;1.80;;;1.70;;
6255;SDS011;3161;48.794;9.784;2023-04-03T05:07:45;2.37;;;2.00;;
6255;SDS011;3161;48.794;9.784;2023-04-03T05:10:13;2.13;;;1.80;;
6255;SDS011;3161;48.794;9.784;2023-04-03T05:12:40;1.47;;;1.37;;
6255;SDS011;3161;48.794;9.784;2023-04-03T05:15:08;4.67;;;1.87;;
6255;SDS011;3161;48.794;9.784;2023-04-03T05:17:36;3.23;;;1.83;;
6255;SDS011;3161;48.794;9.784;2023-04-03T05:20:04;2.20;;;1.63;;
6255;SDS011;3161;48.794;9.784;2023-04-03T05:22:32;5.07;;;1.80;;
6255;SDS011;3161;48.794;9.784;2023-04-03T05:25:00;2.50;;;1.40;;
6255;SDS011;3161;48.794;9.784;2023-04-03T05:27:28;3.73;;;1.73;;
6255;SDS011;3161;48.794;9.784;2023-04-03T05:29:55;2.63;;;1.50;;
6255;SDS011;3161;48.794;9.784;2023-04-03T05:32:23;2.37;;;1.70;;
6255;SDS011;3161;48.794;9.784;2023-04-03T05:34:53;4.50;;;1.80;;
6255;SDS011;3161;48.794;9.784;2023-04-03T05:37:21;1.87;;;1.70;;
6255;SDS011;3161;48.794;9.784;2023-04-03T05:39:48;1.80;;;1.57;;
6255;SDS011;3161;48.794;9.784;2023-04-03T05:42:16;1.97;;;1.73;;
6255;SDS011;3161;48.794;9.784;2023-04-03T05:44:44;3.57;;;1.80;;
6255;SDS011;3161;48.794;9.784;2023-04-03T05:47:13;2.00;;;1.80;;
6255;SDS011;3161;48.794;9.784;2023-04-03T05:49:40;1.63;;;1.53;;
6255;SDS011;3161;48.794;9.784;2023-04-03T05:52:29;3.13;;;1.90;;
6255;SDS011;3161;48.794;9.784;2023-04-03T05:54:48;1.90;;;1.77;;
6255;SDS011;3161;48.794;9.784;2023-04-03T05:57:16;2.10;;;1.90;;
6255;SDS011;3161;48.794;9.784;2023-04-03T05:59:45;5.37;;;3.33;;
6255;SDS011;3161;48.794;9.784;2023-04-03T06:02:14;8.27;;;4.90;;
6255;SDS011;3161;48.794;9.784;2023-04-03T06:04:43;4.27;;;1.70;;
6255;SDS011;3161;48.794;9.784;2023-04-03T06:07:12;6.17;;;1.90;;
6255;SDS011;3161;48.794;9.784;2023-04-03T06:09:42;3.73;;;2.03;;
6255;SDS011;3161;48.794;9.784;2023-04-03T06:12:09;2.60;;;2.40;;
6255;SDS011;3161;48.794;9.784;2023-04-03T06:14:37;4.00;;;2.30;;
6255;SDS011;3161;48.794;9.784;2023-04-03T06:17:04;3.07;;;1.97;;
6255;SDS011;3161;48.794;9.784;2023-04-03T06:19:32;3.57;;;2.57;;
6255;SDS011;3161;48.794;9.784;2023-04-03T06:22:00;3.40;;;2.40;;
6255;SDS011;3161;48.794;9.784;2023-04-03T06:24:28;2.97;;;2.10;;
6255;SDS011;3161;48.794;9.784;2023-04-03T06:26:56;1.93;;;1.83;;
6255;SDS011;3161;48.794;9.784;2023-04-03T06:29:24;1.97;;;1.60;;
6255;SDS011;3161;48.794;9.784;2023-04-03T06:31:52;2.33;;;2.13;;
6255;SDS011;3161;48.794;9.784;2023-04-03T06:34:19;5.70;;;2.27;;
6255;SDS011;3161;48.794;9.784;2023-04-03T06:36:48;2.40;;;1.90;;
6255;SDS011;3161;48.794;9.784;2023-04-03T06:39:17;2.13;;;1.90;;
6255;SDS011;3161;48.794;9.784;2023-04-03T06:41:47;1.90;;;1.80;;
6255;SDS011;3161;48.794;9.784;2023-04-03T06:44:15;2.30;;;2.07;;
6255;SDS011;3161;48.794;9.784;2023-04-03T06:46:43;4.07;;;1.93;;
6255;SDS011;3161;48.794;9.784;2023-04-03T06:49:12;4.23;;;1.60;;
6255;SDS011;3161;48.794;9.784;2023-04-03T06:51:40;2.73;;;1.80;;
6255;SDS011;3161;48.794;9.784;2023-04-03T06:54:08;3.00;;;1.70;;
6255;SDS011;3161;48.794;9.784;2023-04-03T06:56:36;2.97;;;1.77;;
6255;SDS011;3161;48.794;9.784;2023-04-03T06:59:03;2.87;;;1.50;;
6255;SDS011;3161;48.794;9.784;2023-04-03T07:01:31;4.37;;;2.10;;
6255;SDS011;3161;48.794;9.784;2023-04-03T07:03:58;2.47;;;1.77;;
6255;SDS011;3161;48.794;9.784;2023-04-03T07:06:26;4.83;;;2.07;;
6255;SDS011;3161;48.794;9.784;2023-04-03T07:08:54;1.93;;;1.83;;
6255;SDS011;3161;48.794;9.784;2023-04-03T07:11:22;3.03;;;2.07;;
6255;SDS011;3161;48.794;9.784;2023-04-03T07:13:50;4.77;;;1.83;;
6255;SDS011;3161;48.794;9.784;2023-04-03T07:16:17;3.80;;;1.67;;
6255;SDS011;3161;48.794;9.784;2023-04-03T07:18:46;2.73;;;1.87;;
6255;SDS011;3161;48.794;9.784;2023-04-03T07:21:14;4.20;;;1.70;;
6255;SDS011;3161;48.794;9.784;2023-04-03T07:23:41;1.90;;;1.60;;
6255;SDS011;3161;48.794;9.784;2023-04-03T07:26:09;3.73;;;2.20;;
6255;SDS011;3161;48.794;9.784;2023-04-03T07:28:36;1.97;;;1.80;;
6255;SDS011;3161;48.794;9.784;2023-04-03T07:31:06;5.43;;;1.60;;
6255;SDS011;3161;48.794;9.784;2023-04-03T07:33:36;5.43;;;2.40;;
6255;SDS011;3161;48.794;9.784;2023-04-03T07:36:05;4.40;;;1.90;;
6255;SDS011;3161;48.794;9.784;2023-04-03T07:38:34;5.30;;;2.00;;
6255;SDS011;3161;48.794;9.784;2023-04-03T07:41:03;5.60;;;2.67;;
6255;SDS011;3161;48.794;9.784;2023-04-03T07:43:31;4.40;;;2.07;;
6255;SDS011;3161;48.794;9.784;2023-04-03T07:46:00;3.07;;;1.73;;
6255;SDS011;3161;48.794;9.784;2023-04-03T07:48:28;2.43;;;2.20;;
6255;SDS011;3161;48.794;9.784;2023-04-03T07:50:58;4.00;;;2.10;;
6255;SDS011;3161;48.794;9.784;2023-04-03T07:53:29;2.83;;;2.40;;
6255;SDS011;3161;48.794;9.784;2023-04-03T07:55:57;4.47;;;2.30;;
6255;SDS011;3161;48.794;9.784;2023-04-03T07:58:25;2.80;;;1.93;;
6255;SDS011;3161;48.794;9.784;2023-04-03T08:00:53;4.23;;;1.83;;
6255;SDS011;3161;48.794;9.784;2023-04-03T08:03:20;5.13;;;2.47;;
6255;SDS011;3161;48.794;9.784;2023-04-03T08:05:48;4.63;;;2.77;;
6255;SDS011;3161;48.794;9.784;2023-04-03T08:08:20;9.10;;;5.00;;
6255;SDS011;3161;48.794;9.784;2023-04-03T08:10:50;16.07;;;5.93;;
6255;SDS011;3161;48.794;9.784;2023-04-03T08:13:20;3.80;;;2.57;;
6255;SDS011;3161;48.794;9.784;2023-04-03T08:15:48;11.63;;;5.80;;
6255;SDS011;3161;48.794;9.784;2023-04-03T08:18:16;7.10;;;4.40;;
6255;SDS011;3161;48.794;9.784;2023-04-03T08:20:46;3.77;;;2.30;;
6255;SDS011;3161;48.794;9.784;2023-04-03T08:23:14;4.07;;;2.40;;
6255;SDS011;3161;48.794;9.784;2023-04-03T08:25:44;3.33;;;1.87;;
6255;SDS011;3161;48.794;9.784;2023-04-03T08:28:11;6.20;;;2.00;;
6255;SDS011;3161;48.794;9.784;2023-04-03T08:30:39;2.50;;;1.70;;
6255;SDS011;3161;48.794;9.784;2023-04-03T08:33:08;4.87;;;2.50;;
6255;SDS011;3161;48.794;9.784;2023-04-03T08:35:40;3.13;;;2.03;;
6255;SDS011;3161;48.794;9.784;2023-04-03T08:38:09;1.93;;;1.70;;
6255;SDS011;3161;48.794;9.784;2023-04-03T08:40:37;2.60;;;1.63;;
6255;SDS011;3161;48.794;9.784;2023-04-03T08:43:29;2.27;;;1.70;;
6255;SDS011;3161;48.794;9.784;2023-04-03T08:45:57;4.40;;;2.10;;
6255;SDS011;3161;48.794;9.784;2023-04-03T08:48:33;2.83;;;1.50;;
6255;SDS011;3161;48.794;9.784;2023-04-03T08:51:08;5.33;;;1.97;;
6255;SDS011;3161;48.794;9.784;2023-04-03T08:53:33;3.10;;;2.03;;
6255;SDS011;3161;48.794;9.784;2023-04-03T08:56:04;4.17;;;2.20;;
6255;SDS011;3161;48.794;9.784;2023-04-03T08:58:40;4.57;;;2.10;;
6255;SDS011;3161;48.794;9.784;2023-04-03T09:04:10;1.40;;;1.30;;
6255;SDS011;3161;48.794;9.784;2023-04-03T09:06:46;2.57;;;1.63;;
6255;SDS011;3161;48.794;9.784;2023-04-03T09:09:15;4.00;;;1.83;;
6255;SDS011;3161;48.794;9.784;2023-04-03T09:14:42;2.33;;;2.00;;
6255;SDS011;3161;48.794;9.784;2023-04-03T09:17:41;2.10;;;1.37;;
6255;SDS011;3161;48.794;9.784;2023-04-03T09:25:51;6.23;;;1.60;;
6255;SDS011;3161;48.794;9.784;2023-04-03T09:28:21;8.47;;;1.80;;
6255;SDS011;3161;48.794;9.784;2023-04-03T09:30:48;2.57;;;1.70;;
6255;SDS011;3161;48.794;9.784;2023-04-03T09:33:16;3.70;;;1.57;;
6255;SDS011;3161;48.794;9.784;2023-04-03T09:35:44;2.50;;;1.50;;
6255;SDS011;3161;48.794;9.784;2023-04-03T09:40:44;7.40;;;1.50;;
6255;SDS011;3161;48.794;9.784;2023-04-03T09:45:53;3.07;;;1.67;;
6255;SDS011;3161;48.794;9.784;2023-04-03T09:48:28;6.83;;;3.23;;
6255;SDS011;3161;48.794;9.784;2023-04-03T09:50:55;1.90;;;1.60;;
6255;SDS011;3161;48.794;9.784;2023-04-03T09:53:35;5.13;;;2.10;;
6255;SDS011;3161;48.794;9.784;2023-04-03T09:58:48;6.90;;;1.77;;
6255;SDS011;3161;48.794;9.784;2023-04-03T10:01:28;5.30;;;2.50;;
6255;SDS011;3161;48.794;9.784;2023-04-03T10:04:05;2.97;;;1.60;;
6255;SDS011;3161;48.794;9.784;2023-04-03T10:06:42;4.47;;;1.60;;
6255;SDS011;3161;48.794;9.784;2023-04-03T10:09:26;6.17;;;2.07;;
6255;SDS011;3161;48.794;9.784;2023-04-03T10:12:03;2.07;;;1.80;;
6255;SDS011;3161;48.794;9.784;2023-04-03T10:14:33;3.67;;;1.47;;
6255;SDS011;3161;48.794;9.784;2023-04-03T10:17:09;4.47;;;1.40;;
6255;SDS011;3161;48.794;9.784;2023-04-03T10:19:44;2.80;;;1.33;;
6255;SDS011;3161;48.794;9.784;2023-04-03T10:33:26;3.50;;;1.13;;
6255;SDS011;3161;48.794;9.784;2023-04-03T10:44:40;5.20;;;1.40;;
6255;SDS011;3161;48.794;9.784;2023-04-03T10:47:11;1.83;;;1.37;;
6255;SDS011;3161;48.794;9.784;2023-04-03T10:50:21;4.00;;;1.30;;
6255;SDS011;3161;48.794;9.784;2023-04-03T10:52:36;2.57;;;1.00;;
6255;SDS011;3161;48.794;9.784;2023-04-03T10:57:50;1.00;;;1.00;;
6255;SDS011;3161;48.794;9.784;2023-04-03T11:00:26;2.53;;;1.00;;
6255;SDS011;3161;48.794;9.784;2023-04-03T11:03:03;3.77;;;1.03;;
6255;SDS011;3161;48.794;9.784;2023-04-03T11:05:34;7.83;;;1.10;;
6255;SDS011;3161;48.794;9.784;2023-04-03T11:08:19;2.40;;;1.00;;
6255;SDS011;3161;48.794;9.784;2023-04-03T11:10:41;4.03;;;1.10;;
6255;SDS011;3161;48.794;9.784;2023-04-03T11:13:17;1.57;;;1.17;;
6255;SDS011;3161;48.794;9.784;2023-04-03T11:15:49;1.23;;;0.87;;
6255;SDS011;3161;48.794;9.784;2023-04-03T11:19:08;2.80;;;1.23;;
6255;SDS011;3161;48.794;9.784;2023-04-03T11:21:02;3.63;;;1.30;;
6255;SDS011;3161;48.794;9.784;2023-04-03T11:23:40;2.90;;;1.20;;
6255;SDS011;3161;48.794;9.784;2023-04-03T11:26:09;2.77;;;1.00;;
6255;SDS011;3161;48.794;9.784;2023-04-03T11:28:38;1.27;;;1.17;;
6255;SDS011;3161;48.794;9.784;2023-04-03T11:34:22;2.60;;;1.57;;
6255;SDS011;3161;48.794;9.784;2023-04-03T11:37:05;4.33;;;1.63;;
6255;SDS011;3161;48.794;9.784;2023-04-03T11:39:35;5.17;;;1.13;;
6255;SDS011;3161;48.794;9.784;2023-04-03T11:47:57;1.63;;;1.20;;
6255;SDS011;3161;48.794;9.784;2023-04-03T11:50:31;1.83;;;1.10;;
6255;SDS011;3161;48.794;9.784;2023-04-03T11:58:21;2.07;;;0.90;;
6255;SDS011;3161;48.794;9.784;2023-04-03T12:00:54;1.40;;;1.30;;
6255;SDS011;3161;48.794;9.784;2023-04-03T12:03:33;2.80;;;1.40;;
6255;SDS011;3161;48.794;9.784;2023-04-03T12:16:21;3.40;;;1.00;;
6255;SDS011;3161;48.794;9.784;2023-04-03T12:40:31;2.83;;;1.17;;
6255;SDS011;3161;48.794;9.784;2023-04-03T12:43:31;1.00;;;0.90;;
6255;SDS011;3161;48.794;9.784;2023-04-03T12:51:18;2.30;;;1.40;;
6255;SDS011;3161;48.794;9.784;2023-04-03T12:53:46;2.63;;;1.07;;
6255;SDS011;3161;48.794;9.784;2023-04-03T12:56:26;2.33;;;1.13;;
6255;SDS011;3161;48.794;9.784;2023-04-03T12:59:16;1.30;;;1.00;;
6255;SDS011;3161;48.794;9.784;2023-04-03T13:01:52;5.23;;;1.50;;
6255;SDS011;3161;48.794;9.784;2023-04-03T13:04:25;0.80;;;0.80;;
6255;SDS011;3161;48.794;9.784;2023-04-03T13:06:55;2.27;;;1.00;;
6255;SDS011;3161;48.794;9.784;2023-04-03T13:09:23;3.50;;;0.97;;
6255;SDS011;3161;48.794;9.784;2023-04-03T13:12:03;1.50;;;1.00;;
6255;SDS011;3161;48.794;9.784;2023-04-03T13:14:35;2.67;;;1.37;;
6255;SDS011;3161;48.794;9.784;2023-04-03T13:17:12;0.90;;;0.90;;
6255;SDS011;3161;48.794;9.784;2023-04-03T13:19:42;1.93;;;1.20;;
6255;SDS011;3161;48.794;9.784;2023-04-03T13:25:03;2.23;;;1.27;;
6255;SDS011;3161;48.794;9.784;2023-04-03T13:27:33;1.43;;;1.10;;
6255;SDS011;3161;48.794;9.784;2023-04-03T13:30:02;3.37;;;1.30;;
6255;SDS011;3161;48.794;9.784;2023-04-03T13:32:31;6.03;;;1.33;;
6255;SDS011;3161;48.794;9.784;2023-04-03T13:34:59;1.77;;;1.20;;
6255;SDS011;3161;48.794;9.784;2023-04-03T13:37:30;6.13;;;1.40;;
6255;SDS011;3161;48.794;9.784;2023-04-03T13:40:02;2.73;;;1.20;;
6255;SDS011;3161;48.794;9.784;2023-04-03T13:42:31;2.13;;;1.30;;
6255;SDS011;3161;48.794;9.784;2023-04-03T13:45:18;3.63;;;1.37;;
6255;SDS011;3161;48.794;9.784;2023-04-03T13:48:06;2.30;;;1.67;;
6255;SDS011;3161;48.794;9.784;2023-04-03T13:50:57;2.80;;;1.27;;
6255;SDS011;3161;48.794;9.784;2023-04-03T13:53:33;1.43;;;1.33;;
6255;SDS011;3161;48.794;9.784;2023-04-03T13:56:13;5.57;;;1.40;;
6255;SDS011;3161;48.794;9.784;2023-04-03T13:58:58;5.77;;;1.30;;
6255;SDS011;3161;48.794;9.784;2023-04-03T14:01:36;4.30;;;1.33;;
6255;SDS011;3161;48.794;9.784;2023-04-03T14:04:24;4.13;;;1.23;;
6255;SDS011;3161;48.794;9.784;2023-04-03T14:06:54;2.97;;;1.00;;
6255;SDS011;3161;48.794;9.784;2023-04-03T14:09:24;6.03;;;0.90;;
6255;SDS011;3161;48.794;9.784;2023-04-03T14:11:57;1.73;;;1.00;;
6255;SDS011;3161;48.794;9.784;2023-04-03T14:14:27;2.50;;;1.57;;
6255;SDS011;3161;48.794;9.784;2023-04-03T14:16:58;2.60;;;1.40;;
6255;SDS011;3161;48.794;9.784;2023-04-03T14:19:28;2.03;;;1.33;;
6255;SDS011;3161;48.794;9.784;2023-04-03T14:22:10;2.97;;;1.53;;
6255;SDS011;3161;48.794;9.784;2023-04-03T14:24:35;3.20;;;1.50;;
6255;SDS011;3161;48.794;9.784;2023-04-03T14:27:02;1.37;;;1.07;;
6255;SDS011;3161;48.794;9.784;2023-04-03T14:29:31;2.10;;;1.03;;
6255;SDS011;3161;48.794;9.784;2023-04-03T14:31:59;1.70;;;1.33;;
6255;SDS011;3161;48.794;9.784;2023-04-03T14:34:26;1.80;;;1.47;;
6255;SDS011;3161;48.794;9.784;2023-04-03T14:36:54;3.30;;;1.63;;
6255;SDS011;3161;48.794;9.784;2023-04-03T14:39:22;2.33;;;1.17;;
6255;SDS011;3161;48.794;9.784;2023-04-03T14:41:49;2.73;;;1.27;;
6255;SDS011;3161;48.794;9.784;2023-04-03T14:44:17;2.87;;;1.37;;
6255;SDS011;3161;48.794;9.784;2023-04-03T14:46:44;1.20;;;1.10;;
6255;SDS011;3161;48.794;9.784;2023-04-03T14:49:14;2.00;;;1.23;;
6255;SDS011;3161;48.794;9.784;2023-04-03T14:51:43;5.30;;;0.90;;
6255;SDS011;3161;48.794;9.784;2023-04-03T14:54:14;1.13;;;0.83;;
6255;SDS011;3161;48.794;9.784;2023-04-03T14:56:45;1.37;;;1.17;;
6255;SDS011;3161;48.794;9.784;2023-04-03T14:59:13;1.60;;;1.00;;
6255;SDS011;3161;48.794;9.784;2023-04-03T15:01:42;1.17;;;1.10;;
6255;SDS011;3161;48.794;9.784;2023-04-03T15:04:11;1.23;;;1.10;;
6255;SDS011;3161;48.794;9.784;2023-04-03T15:06:47;1.73;;;0.93;;
6255;SDS011;3161;48.794;9.784;2023-04-03T15:09:18;2.13;;;1.20;;
6255;SDS011;3161;48.794;9.784;2023-04-03T15:11:49;3.53;;;1.57;;
6255;SDS011;3161;48.794;9.784;2023-04-03T15:14:17;1.90;;;1.20;;
6255;SDS011;3161;48.794;9.784;2023-04-03T15:16:45;1.83;;;1.03;;
6255;SDS011;3161;48.794;9.784;2023-04-03T15:19:13;2.13;;;1.20;;
6255;SDS011;3161;48.794;9.784;2023-04-03T15:21:40;2.27;;;1.30;;
6255;SDS011;3161;48.794;9.784;2023-04-03T15:24:08;2.63;;;1.50;;
6255;SDS011;3161;48.794;9.784;2023-04-03T15:26:36;3.47;;;1.43;;
6255;SDS011;3161;48.794;9.784;2023-04-03T15:29:04;2.30;;;1.47;;
6255;SDS011;3161;48.794;9.784;2023-04-03T15:31:32;2.50;;;1.33;;
6255;SDS011;3161;48.794;9.784;2023-04-03T15:34:00;2.10;;;0.97;;
6255;SDS011;3161;48.794;9.784;2023-04-03T15:36:29;1.27;;;1.00;;
6255;SDS011;3161;48.794;9.784;2023-04-03T15:38:56;1.80;;;1.20;;
6255;SDS011;3161;48.794;9.784;2023-04-03T15:41:24;0.97;;;0.90;;
6255;SDS011;3161;48.794;9.784;2023-04-03T15:43:51;7.17;;;3.70;;
6255;SDS011;3161;48.794;9.784;2023-04-03T15:46:19;2.07;;;1.20;;
6255;SDS011;3161;48.794;9.784;2023-04-03T15:48:47;2.67;;;1.63;;
6255;SDS011;3161;48.794;9.784;2023-04-03T15:51:15;3.03;;;1.60;;
6255;SDS011;3161;48.794;9.784;2023-04-03T15:53:43;2.37;;;1.47;;
6255;SDS011;3161;48.794;9.784;2023-04-03T15:56:10;7.20;;;3.47;;
6255;SDS011;3161;48.794;9.784;2023-04-03T15:58:38;5.77;;;2.47;;
6255;SDS011;3161;48.794;9.784;2023-04-03T16:01:06;3.23;;;2.20;;
6255;SDS011;3161;48.794;9.784;2023-04-03T16:03:35;5.67;;;2.33;;
6255;SDS011;3161;48.794;9.784;2023-04-03T16:06:04;2.93;;;1.70;;
6255;SDS011;3161;48.794;9.784;2023-04-03T16:08:32;7.43;;;2.43;;
6255;SDS011;3161;48.794;9.784;2023-04-03T16:11:01;7.37;;;2.90;;
6255;SDS011;3161;48.794;9.784;2023-04-03T16:13:29;4.47;;;1.87;;
6255;SDS011;3161;48.794;9.784;2023-04-03T16:15:59;4.27;;;2.53;;
6255;SDS011;3161;48.794;9.784;2023-04-03T16:18:27;2.60;;;1.10;;
6255;SDS011;3161;48.794;9.784;2023-04-03T16:20:55;5.53;;;1.90;;
6255;SDS011;3161;48.794;9.784;2023-04-03T16:23:23;4.67;;;2.53;;
6255;SDS011;3161;48.794;9.784;2023-04-03T16:25:51;4.70;;;2.40;;
6255;SDS011;3161;48.794;9.784;2023-04-03T16:28:19;10.07;;;1.93;;
6255;SDS011;3161;48.794;9.784;2023-04-03T16:30:47;5.27;;;2.07;;
6255;SDS011;3161;48.794;9.784;2023-04-03T16:33:15;5.40;;;2.07;;
6255;SDS011;3161;48.794;9.784;2023-04-03T16:35:43;6.73;;;2.13;;
6255;SDS011;3161;48.794;9.784;2023-04-03T16:38:11;3.70;;;1.73;;
6255;SDS011;3161;48.794;9.784;2023-04-03T16:40:39;5.83;;;2.03;;
6255;SDS011;3161;48.794;9.784;2023-04-03T16:43:06;2.17;;;1.63;;
6255;SDS011;3161;48.794;9.784;2023-04-03T16:45:40;3.57;;;2.07;;
6255;SDS011;3161;48.794;9.784;2023-04-03T16:48:05;5.43;;;2.77;;
6255;SDS011;3161;48.794;9.784;2023-04-03T16:50:32;4.17;;;1.87;;
6255;SDS011;3161;48.794;9.784;2023-04-03T16:53:00;2.90;;;1.60;;
6255;SDS011;3161;48.794;9.784;2023-04-03T16:55:28;2.17;;;1.50;;
6255;SDS011;3161;48.794;9.784;2023-04-03T16:57:56;3.80;;;1.53;;
6255;SDS011;3161;48.794;9.784;2023-04-03T17:00:23;5.77;;;1.80;;
6255;SDS011;3161;48.794;9.784;2023-04-03T17:02:51;3.50;;;1.60;;
6255;SDS011;3161;48.794;9.784;2023-04-03T17:05:19;2.20;;;1.30;;
6255;SDS011;3161;48.794;9.784;2023-04-03T17:07:46;5.40;;;2.20;;
6255;SDS011;3161;48.794;9.784;2023-04-03T17:10:14;4.93;;;1.43;;
6255;SDS011;3161;48.794;9.784;2023-04-03T17:12:41;2.70;;;1.43;;